createdAt,value
2019-05-28T00:01:37.307Z,16.97
2019-05-28T00:06:39.797Z,10.37
2019-05-28T00:11:42.275Z,10.17
2019-05-28T00:16:44.794Z,7.47
2019-05-28T00:21:47.297Z,8.97
2019-05-28T00:26:49.760Z,9.40
2019-05-28T00:31:52.368Z,9.27
2019-05-28T00:36:54.903Z,9.40
2019-05-28T00:41:57.468Z,8.13
2019-05-28T00:46:59.989Z,9.07
2019-05-28T00:52:02.512Z,9.23
2019-05-28T00:57:05.188Z,8.33
2019-05-28T01:02:07.720Z,6.50
2019-05-28T01:07:11.507Z,6.83
2019-05-28T01:12:14.076Z,7.70
2019-05-28T01:17:16.546Z,9.23
2019-05-28T01:22:18.980Z,11.93
2019-05-28T01:27:21.400Z,9.53
2019-05-28T01:32:23.969Z,9.97
2019-05-28T01:37:27.530Z,10.70
2019-05-28T01:42:30.279Z,18.20
2019-05-28T01:47:33.042Z,10.47
2019-05-28T01:52:36.058Z,11.27
2019-05-28T01:57:40.166Z,9.53
2019-05-28T02:02:43.020Z,9.90
2019-05-28T02:07:46.231Z,10.77
2019-05-28T02:12:48.843Z,9.47
2019-05-28T02:17:51.334Z,8.90
2019-05-28T02:22:54.034Z,8.27
2019-05-28T02:27:57.518Z,12.30
2019-05-28T02:33:00.233Z,8.53
2019-05-28T02:38:04.015Z,8.80
2019-05-28T02:43:27.224Z,9.63
2019-05-28T03:00:27.843Z,9.50
2019-05-28T03:11:04.386Z,16.77
2019-05-28T03:16:09.442Z,18.73
2019-05-28T03:32:48.365Z,29.90
2019-05-28T03:37:53.229Z,35.27
2019-05-28T03:42:55.809Z,36.07
2019-05-28T03:47:58.462Z,33.97
2019-05-28T03:53:01.803Z,35.57
2019-05-28T03:58:07.118Z,39.97
2019-05-28T04:03:10.175Z,39.63
2019-05-28T04:08:12.961Z,43.63
2019-05-28T04:13:15.397Z,43.43
2019-05-28T04:18:17.809Z,40.33
2019-05-28T04:23:20.511Z,35.07
2019-05-28T04:28:22.927Z,35.23
2019-05-28T04:33:25.413Z,37.40
2019-05-28T04:38:27.873Z,39.90
2019-05-28T04:43:31.537Z,38.73
2019-05-28T04:48:36.648Z,44.43
2019-05-28T04:53:39.780Z,38.40
2019-05-28T04:59:03.854Z,31.60
2019-05-28T05:04:05.831Z,26.07
2019-05-28T05:09:13.660Z,24.97
2019-05-28T05:14:16.377Z,26.13
2019-05-28T05:19:18.968Z,22.93
2019-05-28T05:24:21.679Z,27.90
2019-05-28T05:29:24.468Z,22.73
2019-05-28T05:34:29.869Z,21.80
2019-05-28T05:39:32.791Z,19.13
2019-05-28T05:44:35.999Z,18.37
2019-05-28T05:49:39.132Z,17.10
2019-05-28T05:54:41.998Z,18.10
2019-05-28T05:59:44.906Z,12.10
2019-05-28T06:04:47.509Z,9.47
2019-05-28T06:09:49.993Z,16.73
2019-05-28T06:14:52.782Z,8.27
2019-05-28T06:19:55.453Z,7.67
2019-05-28T06:24:58.045Z,8.70
2019-05-28T06:30:00.603Z,7.23
2019-05-28T06:35:06.987Z,6.60
2019-05-28T06:40:10.361Z,7.57
2019-05-28T06:45:13.236Z,6.17
2019-05-28T06:50:19.484Z,3.87
2019-05-28T06:55:29.129Z,4.33
2019-05-28T07:00:31.620Z,3.50
2019-05-28T07:05:34.191Z,3.40
2019-05-28T07:10:36.834Z,3.40
2019-05-28T07:15:39.566Z,3.33
2019-05-28T07:20:42.189Z,5.17
2019-05-28T07:25:44.960Z,2.87
2019-05-28T07:30:47.851Z,3.43
2019-05-28T07:35:53.065Z,2.93
2019-05-28T07:40:55.963Z,6.03
2019-05-28T07:45:59.034Z,3.40
2019-05-28T07:51:03.262Z,5.37
2019-05-28T07:56:05.823Z,3.40
2019-05-28T08:01:08.376Z,3.80
2019-05-28T08:06:12.134Z,3.60
2019-05-28T08:11:14.742Z,4.97
2019-05-28T08:16:19.164Z,4.10
2019-05-28T08:21:21.739Z,4.67
2019-05-28T08:26:24.893Z,3.63
2019-05-28T08:31:27.458Z,3.37
2019-05-28T08:36:30.190Z,3.83
2019-05-28T08:41:32.956Z,3.80
2019-05-28T08:52:22.505Z,4.20
2019-05-28T08:57:26.015Z,4.43
2019-05-28T09:02:29.223Z,4.70
2019-05-28T09:07:35.183Z,6.80
2019-05-28T09:12:41.836Z,9.47
2019-05-28T09:17:50.484Z,5.55
2019-05-28T09:22:54.378Z,5.83
2019-05-28T09:28:00.357Z,6.17
2019-05-28T09:33:06.049Z,4.80
2019-05-28T09:38:23.616Z,5.97
2019-05-28T09:43:28.306Z,8.90
2019-05-28T09:48:30.883Z,8.13
2019-05-28T09:53:35.016Z,6.40
2019-05-28T09:58:37.723Z,7.77
2019-05-28T10:09:39.289Z,4.73
2019-05-28T10:14:47.275Z,6.23
2019-05-28T10:19:50.525Z,4.12
2019-05-28T10:25:26.904Z,6.00
2019-05-28T10:30:32.103Z,5.23
2019-05-28T10:35:35.016Z,4.17
2019-05-28T10:40:37.572Z,6.17
2019-05-28T10:45:40.129Z,3.57
2019-05-28T10:50:45.707Z,3.37
2019-05-28T10:55:48.410Z,2.90
2019-05-28T11:00:50.951Z,4.47
2019-05-28T11:05:53.457Z,5.97
2019-05-28T11:10:56.061Z,6.08
2019-05-28T11:16:07.108Z,4.75
2019-05-28T11:21:10.529Z,2.93
2019-05-28T11:26:13.274Z,3.37
2019-05-28T11:31:15.703Z,3.20
2019-05-28T11:36:18.170Z,5.40
2019-05-28T11:41:20.684Z,2.80
2019-05-28T11:46:23.221Z,3.90
2019-05-28T11:51:26.845Z,3.17
2019-05-28T11:56:29.447Z,2.42
2019-05-28T12:01:35.073Z,2.50
2019-05-28T12:06:44.545Z,2.15
2019-05-28T12:11:47.637Z,1.85
2019-05-28T12:16:50.118Z,2.80
2019-05-28T12:21:52.605Z,3.33
2019-05-28T12:27:11.997Z,1.87
2019-05-28T12:32:14.797Z,2.87
2019-05-28T12:37:18.157Z,2.83
2019-05-28T12:42:20.832Z,3.00
2019-05-28T12:47:23.535Z,5.57
2019-05-28T12:52:26.170Z,2.97
2019-05-28T12:57:50.798Z,3.20
2019-05-28T13:02:55.296Z,3.43
2019-05-28T13:08:08.272Z,4.93
2019-05-28T13:13:02.357Z,3.70
2019-05-28T13:18:04.981Z,2.80
2019-05-28T13:23:07.862Z,4.70
2019-05-28T13:28:10.409Z,2.50
2019-05-28T13:33:26.009Z,5.47
2019-05-28T13:38:28.965Z,6.40
2019-05-28T13:43:31.857Z,6.70
2019-05-28T13:48:34.480Z,3.77
2019-05-28T13:53:37.119Z,3.50
2019-05-28T13:58:39.888Z,3.97
2019-05-28T14:03:42.322Z,4.27
2019-05-28T14:08:47.410Z,8.80
2019-05-28T14:13:49.663Z,5.90
2019-05-28T14:18:52.364Z,7.07
2019-05-28T14:23:54.804Z,11.07
2019-05-28T14:29:11.049Z,13.57
2019-05-28T14:34:13.525Z,6.73
2019-05-28T14:39:16.199Z,11.40
2019-05-28T14:44:19.456Z,14.80
2019-05-28T14:49:22.297Z,11.73
2019-05-28T14:54:24.659Z,8.03
2019-05-28T14:59:27.101Z,2.37
2019-05-28T15:04:29.535Z,4.23
2019-05-28T15:09:32.151Z,6.77
2019-05-28T15:14:34.721Z,5.73
2019-05-28T15:19:37.730Z,10.27
2019-05-28T15:24:40.671Z,8.53
2019-05-28T15:29:43.384Z,6.47
2019-05-28T15:34:46.120Z,6.17
2019-05-28T15:39:49.400Z,6.13
2019-05-28T15:44:52.243Z,5.97
2019-05-28T15:49:55.053Z,4.50
2019-05-28T15:55:08.339Z,6.57
2019-05-28T16:00:15.311Z,6.27
2019-05-28T16:05:18.021Z,6.10
2019-05-28T16:10:20.836Z,3.20
2019-05-28T16:15:23.349Z,3.13
2019-05-28T16:20:25.799Z,3.73
2019-05-28T16:25:28.482Z,2.87
2019-05-28T16:30:30.948Z,3.80
2019-05-28T16:35:33.467Z,4.07
2019-05-28T16:40:36.014Z,3.20
2019-05-28T16:45:38.607Z,4.07
2019-05-28T16:50:41.267Z,5.80
2019-05-28T16:55:43.797Z,6.70
2019-05-28T17:00:46.320Z,4.30
2019-05-28T17:05:49.725Z,3.77
2019-05-28T17:10:52.161Z,5.83
2019-05-28T17:15:56.270Z,4.30
2019-05-28T17:21:01.328Z,4.23
2019-05-28T17:26:04.634Z,3.83
2019-05-28T17:31:07.300Z,4.07
2019-05-28T17:36:09.817Z,6.87
2019-05-28T17:41:12.334Z,6.27
2019-05-28T17:46:22.031Z,4.27
2019-05-28T17:51:29.976Z,3.27
2019-05-28T17:56:33.244Z,4.13
2019-05-28T18:01:36.550Z,3.50
2019-05-28T18:06:39.002Z,6.07
2019-05-28T18:11:45.620Z,3.40
2019-05-28T18:16:48.015Z,3.77
2019-05-28T18:21:50.585Z,6.83
2019-05-28T18:26:53.980Z,4.33
2019-05-28T18:31:57.764Z,8.07
2019-05-28T18:37:00.633Z,6.80
2019-05-28T18:42:06.213Z,4.50
2019-05-28T18:47:09.156Z,4.37
2019-05-28T18:52:11.936Z,8.07
2019-05-28T18:57:14.416Z,9.73
2019-05-28T19:02:19.194Z,8.67
2019-05-28T19:07:21.776Z,3.60
2019-05-28T19:12:24.931Z,15.13
2019-05-28T19:17:27.718Z,6.30
2019-05-28T19:22:30.661Z,7.17
2019-05-28T19:27:35.519Z,9.80
2019-05-28T19:32:38.265Z,5.37
2019-05-28T19:37:40.999Z,9.73
2019-05-28T19:42:43.504Z,7.07
2019-05-28T19:47:46.276Z,8.83
2019-05-28T19:52:49.070Z,7.90
2019-05-28T19:57:51.537Z,8.73
2019-05-28T20:02:54.025Z,8.00
2019-05-28T20:07:56.681Z,12.37
2019-05-28T20:12:59.113Z,11.13
2019-05-28T20:18:02.055Z,7.77
2019-05-28T20:23:05.113Z,7.73
2019-05-28T20:28:07.640Z,13.60
2019-05-28T20:33:10.124Z,10.27
2019-05-28T20:38:12.669Z,9.60
2019-05-28T20:43:15.057Z,13.90
2019-05-28T20:48:17.711Z,9.07
2019-05-28T20:53:34.993Z,8.97
2019-05-28T20:58:39.402Z,9.73
2019-05-28T21:03:28.567Z,12.67
2019-05-28T21:08:31.393Z,12.40
2019-05-28T21:13:34.003Z,8.47
2019-05-28T21:18:36.336Z,14.57
2019-05-28T21:23:38.760Z,11.70
2019-05-28T21:28:41.283Z,11.80
2019-05-28T21:33:43.712Z,10.23
2019-05-28T21:38:46.123Z,9.43
2019-05-28T21:43:48.603Z,11.13
2019-05-28T21:48:52.272Z,16.13
2019-05-28T21:53:54.849Z,15.83
2019-05-28T21:58:57.488Z,18.27
2019-05-28T22:04:01.639Z,9.67
2019-05-28T22:09:08.173Z,14.77
2019-05-28T22:14:11.029Z,17.17
2019-05-28T22:19:13.415Z,18.57
2019-05-28T22:24:15.819Z,10.60
2019-05-28T22:29:20.416Z,15.73
2019-05-28T22:34:22.807Z,10.37
2019-05-28T22:39:25.233Z,14.43
2019-05-28T22:44:27.613Z,12.53
2019-05-28T22:49:30.028Z,16.27
2019-05-28T22:54:32.472Z,14.37
2019-05-28T22:59:36.507Z,13.80
2019-05-28T23:04:40.380Z,16.80
2019-05-28T23:09:42.756Z,14.17
2019-05-28T23:14:45.059Z,16.27
2019-05-28T23:19:47.427Z,16.10
2019-05-28T23:24:49.848Z,22.97
2019-05-28T23:29:52.234Z,16.03
2019-05-28T23:34:56.400Z,16.37
2019-05-28T23:39:58.821Z,15.30
2019-05-28T23:45:01.373Z,18.80
2019-05-28T23:50:06.672Z,15.40
2019-05-28T23:55:09.928Z,11.07
